createdAt,value
2018-12-06T00:00:11.017Z,17.47
2018-12-06T00:02:39.208Z,16.70
2018-12-06T00:05:07.531Z,16.60
2018-12-06T00:07:35.778Z,17.60
2018-12-06T00:10:04.141Z,17.67
2018-12-06T00:12:32.317Z,19.80
2018-12-06T00:15:11.897Z,22.10
2018-12-06T00:17:40.937Z,17.87
2018-12-06T00:20:09.116Z,22.77
2018-12-06T00:22:37.303Z,18.27
2018-12-06T00:25:05.632Z,17.30
2018-12-06T00:27:33.788Z,18.73
2018-12-06T00:30:13.505Z,20.43
2018-12-06T00:32:41.668Z,19.37
2018-12-06T00:35:09.824Z,14.43
2018-12-06T00:37:38.029Z,20.17
2018-12-06T00:40:06.563Z,18.30
2018-12-06T00:42:34.724Z,16.73
2018-12-06T00:45:03.065Z,17.83
2018-12-06T00:47:31.345Z,19.13
2018-12-06T00:49:59.505Z,13.67
2018-12-06T00:52:27.669Z,16.33
2018-12-06T00:54:55.958Z,20.93
2018-12-06T00:57:24.131Z,19.97
2018-12-06T00:59:52.313Z,21.37
2018-12-06T01:02:20.889Z,21.03
2018-12-06T01:04:49.072Z,20.73
2018-12-06T01:07:17.239Z,23.13
2018-12-06T01:09:45.528Z,16.73
2018-12-06T01:12:13.769Z,20.40
2018-12-06T01:14:41.944Z,22.27
2018-12-06T01:17:10.341Z,20.43
2018-12-06T01:19:38.653Z,22.53
2018-12-06T01:22:07.017Z,22.50
2018-12-06T01:24:35.200Z,19.20
2018-12-06T01:27:03.474Z,14.10
2018-12-06T01:29:31.749Z,22.73
2018-12-06T01:31:59.917Z,21.83
2018-12-06T01:34:28.076Z,17.70
2018-12-06T01:36:56.278Z,25.13
2018-12-06T01:39:24.445Z,20.33
2018-12-06T01:41:52.613Z,12.30
2018-12-06T01:44:20.797Z,17.17
2018-12-06T01:46:48.969Z,28.97
2018-12-06T01:49:17.145Z,24.37
2018-12-06T01:51:45.412Z,24.27
2018-12-06T01:54:13.597Z,24.50
2018-12-06T01:56:41.753Z,27.03
2018-12-06T01:59:09.908Z,22.57
2018-12-06T02:01:38.110Z,25.97
2018-12-06T02:04:06.405Z,25.90
2018-12-06T02:06:34.577Z,23.83
2018-12-06T02:09:02.832Z,25.90
2018-12-06T02:11:31.057Z,24.37
2018-12-06T02:13:59.404Z,27.10
2018-12-06T02:16:27.713Z,27.17
2018-12-06T02:18:56.060Z,27.57
2018-12-06T02:21:24.237Z,24.93
2018-12-06T02:23:52.506Z,22.77
2018-12-06T02:26:20.685Z,22.23
2018-12-06T02:28:49.256Z,23.50
2018-12-06T02:31:17.448Z,23.67
2018-12-06T02:33:45.709Z,23.57
2018-12-06T02:36:13.893Z,24.17
2018-12-06T02:38:42.065Z,22.47
2018-12-06T02:41:10.357Z,22.80
2018-12-06T02:43:38.525Z,22.17
2018-12-06T02:46:06.770Z,25.80
2018-12-06T02:48:35.017Z,24.77
2018-12-06T02:51:03.374Z,21.70
2018-12-06T02:53:31.628Z,26.23
2018-12-06T02:55:59.917Z,23.80
2018-12-06T02:58:28.177Z,25.73
2018-12-06T03:00:56.476Z,25.83
2018-12-06T03:03:24.633Z,23.17
2018-12-06T03:05:52.816Z,24.93
2018-12-06T03:08:20.980Z,26.77
2018-12-06T03:10:49.160Z,24.60
2018-12-06T03:13:17.321Z,22.17
2018-12-06T03:15:45.613Z,25.67
2018-12-06T03:18:13.766Z,23.43
2018-12-06T03:20:41.981Z,24.67
2018-12-06T03:23:10.128Z,24.10
2018-12-06T03:25:38.463Z,20.93
2018-12-06T03:28:06.682Z,25.03
2018-12-06T03:30:34.994Z,24.87
2018-12-06T03:33:03.142Z,21.13
2018-12-06T03:35:31.301Z,22.70
2018-12-06T03:37:59.460Z,25.03
2018-12-06T03:40:27.668Z,25.27
2018-12-06T03:42:55.852Z,23.30
2018-12-06T03:45:24.114Z,19.97
2018-12-06T03:47:52.416Z,24.97
2018-12-06T03:50:20.668Z,26.40
2018-12-06T03:52:49.061Z,26.77
2018-12-06T03:55:17.292Z,23.83
2018-12-06T03:57:45.518Z,25.17
2018-12-06T04:00:14.297Z,23.40
2018-12-06T04:02:42.561Z,19.47
2018-12-06T04:05:10.709Z,20.43
2018-12-06T04:07:38.938Z,26.60
2018-12-06T04:10:07.336Z,28.63
2018-12-06T04:12:35.581Z,27.00
2018-12-06T04:15:04.126Z,27.73
2018-12-06T04:17:32.346Z,28.97
2018-12-06T04:20:00.489Z,26.00
2018-12-06T04:22:28.697Z,27.13
2018-12-06T04:24:56.861Z,23.33
2018-12-06T04:27:25.044Z,24.50
2018-12-06T04:29:53.210Z,26.73
2018-12-06T04:32:21.400Z,25.50
2018-12-06T04:34:49.557Z,18.43
2018-12-06T04:37:17.728Z,24.07
2018-12-06T04:39:45.914Z,19.23
2018-12-06T04:42:14.080Z,23.43
2018-12-06T04:44:42.273Z,21.60
2018-12-06T04:47:10.644Z,23.37
2018-12-06T04:49:38.807Z,25.37
2018-12-06T04:52:06.949Z,20.70
2018-12-06T04:54:35.172Z,28.23
2018-12-06T04:57:03.321Z,20.10
2018-12-06T04:59:31.741Z,18.87
2018-12-06T05:02:00.013Z,17.77
2018-12-06T05:04:28.253Z,25.90
2018-12-06T05:06:56.401Z,23.73
2018-12-06T05:09:24.553Z,22.47
2018-12-06T05:11:52.808Z,27.43
2018-12-06T05:14:21.361Z,22.03
2018-12-06T05:16:49.816Z,21.97
2018-12-06T05:19:17.977Z,23.60
2018-12-06T05:21:46.149Z,27.17
2018-12-06T05:24:14.409Z,22.87
2018-12-06T05:26:42.668Z,27.27
2018-12-06T05:29:10.844Z,25.17
2018-12-06T05:31:39.125Z,16.43
2018-12-06T05:34:07.288Z,26.37
2018-12-06T05:36:35.441Z,29.23
2018-12-06T05:39:05.081Z,26.77
2018-12-06T05:41:33.241Z,19.73
2018-12-06T05:44:01.529Z,22.70
2018-12-06T05:46:29.714Z,26.87
2018-12-06T05:48:57.949Z,25.23
2018-12-06T05:51:26.159Z,25.97
2018-12-06T05:53:54.348Z,23.77
2018-12-06T05:56:22.600Z,27.43
2018-12-06T05:58:50.844Z,22.77
2018-12-06T06:01:19.009Z,21.93
2018-12-06T06:03:47.242Z,25.20
2018-12-06T06:06:15.421Z,26.83
2018-12-06T06:08:43.593Z,24.23
2018-12-06T06:11:11.832Z,23.77
2018-12-06T06:13:39.989Z,23.53
2018-12-06T06:16:08.224Z,23.50
2018-12-06T06:18:36.405Z,28.23
2018-12-06T06:21:04.562Z,26.80
2018-12-06T06:23:32.713Z,28.57
2018-12-06T06:26:01.033Z,21.00
2018-12-06T06:28:29.185Z,26.93
2018-12-06T06:30:57.376Z,26.60
2018-12-06T06:33:25.637Z,22.07
2018-12-06T06:35:53.952Z,27.00
2018-12-06T06:38:22.202Z,28.57
2018-12-06T06:40:50.488Z,25.13
2018-12-06T06:43:18.641Z,27.17
2018-12-06T06:48:20.637Z,27.13
2018-12-06T06:50:48.817Z,25.40
2018-12-06T06:53:16.977Z,20.77
2018-12-06T06:55:45.173Z,26.17
2018-12-06T06:58:13.316Z,25.50
2018-12-06T07:00:41.681Z,25.70
2018-12-06T07:03:09.888Z,24.70
2018-12-06T07:05:38.062Z,25.93
2018-12-06T07:08:06.281Z,25.00
2018-12-06T07:10:35.085Z,24.00
2018-12-06T07:13:03.517Z,21.10
2018-12-06T07:15:31.665Z,25.27
2018-12-06T07:17:59.828Z,26.80
2018-12-06T07:20:28.081Z,25.00
2018-12-06T07:22:56.317Z,27.20
2018-12-06T07:25:24.629Z,27.63
2018-12-06T07:27:52.787Z,24.23
2018-12-06T07:30:21.057Z,27.17
2018-12-06T07:32:49.321Z,24.53
2018-12-06T07:35:17.501Z,24.60
2018-12-06T07:37:45.657Z,22.77
2018-12-06T07:40:14.061Z,27.77
2018-12-06T07:42:42.329Z,25.07
2018-12-06T07:45:10.737Z,26.80
2018-12-06T07:47:38.901Z,23.20
2018-12-06T07:50:07.378Z,21.80
2018-12-06T07:52:35.760Z,25.17
2018-12-06T07:55:04.433Z,24.37
2018-12-06T07:57:32.608Z,26.73
2018-12-06T08:00:00.765Z,25.97
2018-12-06T08:02:28.926Z,27.73
2018-12-06T08:04:57.121Z,28.10
2018-12-06T08:07:25.337Z,26.27
2018-12-06T08:09:53.492Z,21.93
2018-12-06T08:12:21.757Z,21.27
2018-12-06T08:14:50.097Z,26.83
2018-12-06T08:17:18.305Z,26.40
2018-12-06T08:19:46.489Z,23.30
2018-12-06T08:22:14.653Z,24.60
2018-12-06T08:24:42.845Z,27.03
2018-12-06T08:27:11.011Z,28.60
2018-12-06T08:29:39.193Z,26.50
2018-12-06T08:32:07.357Z,26.87
2018-12-06T08:34:35.644Z,25.50
2018-12-06T08:37:03.893Z,25.60
2018-12-06T08:39:32.101Z,21.90
2018-12-06T08:42:00.509Z,27.30
2018-12-06T08:44:28.673Z,24.23
2018-12-06T08:46:56.909Z,26.73
2018-12-06T08:49:25.198Z,26.73
2018-12-06T08:51:53.372Z,26.70
2018-12-06T08:54:21.661Z,27.00
2018-12-06T08:56:49.945Z,26.97
2018-12-06T08:59:18.218Z,27.90
2018-12-06T09:01:46.416Z,26.73
2018-12-06T09:04:14.573Z,29.73
2018-12-06T09:06:42.833Z,27.97
2018-12-06T09:09:11.120Z,25.63
2018-12-06T09:11:39.273Z,26.80
2018-12-06T09:14:07.572Z,27.33
2018-12-06T09:16:35.717Z,27.90
2018-12-06T09:19:04.053Z,27.13
2018-12-06T09:21:32.293Z,25.23
2018-12-06T09:24:00.927Z,27.27
2018-12-06T09:26:29.169Z,26.67
2018-12-06T09:28:57.420Z,26.47
2018-12-06T09:31:25.719Z,24.67
2018-12-06T09:34:07.081Z,27.50
2018-12-06T09:36:36.298Z,25.67
2018-12-06T09:39:07.005Z,26.07
2018-12-06T09:41:35.300Z,26.23
2018-12-06T09:44:03.688Z,28.50
2018-12-06T09:46:34.077Z,25.10
2018-12-06T09:49:04.517Z,24.83
2018-12-06T09:51:33.346Z,24.87
2018-12-06T09:54:01.847Z,23.30
2018-12-06T09:56:30.024Z,24.87
2018-12-06T09:58:58.164Z,21.27
2018-12-06T10:01:26.345Z,20.17
2018-12-06T10:03:57.141Z,24.30
2018-12-06T10:06:31.382Z,21.37
2018-12-06T10:08:59.613Z,23.80
2018-12-06T10:11:27.794Z,32.27
2018-12-06T10:13:55.949Z,26.53
2018-12-06T10:16:24.258Z,21.83
2018-12-06T10:18:52.510Z,27.77
2018-12-06T10:21:20.866Z,20.90
2018-12-06T10:23:49.073Z,22.80
2018-12-06T10:26:17.307Z,22.13
2018-12-06T10:28:45.473Z,23.20
2018-12-06T10:31:13.665Z,23.90
2018-12-06T10:33:41.948Z,24.23
2018-12-06T10:36:10.365Z,27.10
2018-12-06T10:38:38.612Z,27.30
2018-12-06T10:41:07.481Z,24.57
2018-12-06T10:43:35.712Z,26.57
2018-12-06T10:46:04.017Z,25.57
2018-12-06T10:48:32.421Z,24.67
2018-12-06T10:51:11.974Z,24.67
2018-12-06T10:53:40.132Z,22.90
2018-12-06T10:56:08.321Z,23.60
2018-12-06T10:58:36.477Z,23.07
2018-12-06T11:01:08.397Z,24.17
2018-12-06T11:03:40.800Z,24.50
2018-12-06T11:06:09.105Z,27.73
2018-12-06T11:08:37.270Z,25.30
2018-12-06T11:11:05.485Z,22.13
2018-12-06T11:13:33.709Z,24.63
2018-12-06T11:16:01.904Z,23.53
2018-12-06T11:18:30.121Z,23.97
2018-12-06T11:20:58.333Z,23.77
2018-12-06T11:23:26.721Z,24.10
2018-12-06T11:25:54.997Z,28.33
2018-12-06T11:28:23.181Z,25.57
2018-12-06T11:30:51.824Z,24.80
2018-12-06T11:33:20.077Z,22.30
2018-12-06T11:35:48.323Z,23.57
2018-12-06T11:38:16.573Z,23.83
2018-12-06T11:40:44.724Z,24.37
2018-12-06T11:43:13.040Z,26.97
2018-12-06T11:45:41.320Z,26.53
2018-12-06T11:48:09.601Z,28.63
2018-12-06T11:50:37.872Z,23.20
2018-12-06T11:53:06.073Z,27.40
2018-12-06T11:55:34.613Z,25.00
2018-12-06T11:58:03.025Z,22.20
2018-12-06T12:00:31.189Z,20.17
2018-12-06T12:02:59.353Z,20.57
2018-12-06T12:05:27.544Z,23.83
2018-12-06T12:07:55.704Z,20.30
2018-12-06T12:10:24.805Z,24.70
2018-12-06T12:12:53.001Z,25.63
2018-12-06T12:15:21.472Z,25.80
2018-12-06T12:17:49.761Z,30.17
2018-12-06T12:20:17.920Z,24.77
2018-12-06T12:22:46.181Z,25.03
2018-12-06T12:25:14.369Z,23.70
2018-12-06T12:27:42.866Z,24.80
2018-12-06T12:30:11.053Z,24.27
2018-12-06T12:32:39.209Z,24.47
2018-12-06T12:35:07.515Z,25.10
2018-12-06T12:37:50.232Z,24.03
2018-12-06T12:40:26.315Z,23.87
2018-12-06T12:43:06.208Z,22.63
2018-12-06T12:45:34.613Z,22.23
2018-12-06T12:48:02.865Z,23.40
2018-12-06T12:50:31.046Z,41.27
2018-12-06T12:52:59.216Z,80.13
2018-12-06T12:55:27.377Z,8.93
2018-12-06T12:57:55.552Z,7.67
2018-12-06T13:00:23.721Z,17.57
2018-12-06T13:02:51.908Z,28.00
2018-12-06T13:05:20.077Z,14.13
2018-12-06T13:07:48.257Z,17.87
2018-12-06T13:10:16.452Z,23.80
2018-12-06T13:12:44.624Z,18.30
2018-12-06T13:15:12.909Z,17.97
2018-12-06T13:17:41.105Z,17.30
2018-12-06T13:20:09.465Z,16.40
2018-12-06T13:22:37.617Z,17.37
2018-12-06T13:25:06.697Z,14.10
2018-12-06T13:27:34.993Z,10.00
2018-12-06T13:30:03.933Z,10.13
2018-12-06T13:32:32.164Z,11.53
2018-12-06T13:35:00.412Z,10.53
2018-12-06T13:37:28.560Z,8.93
2018-12-06T13:39:56.818Z,5.60
2018-12-06T13:42:25.056Z,5.33
2018-12-06T13:44:53.365Z,5.00
2018-12-06T13:47:21.508Z,3.73
2018-12-06T13:49:49.681Z,3.60
2018-12-06T13:52:17.833Z,3.30
2018-12-06T13:54:45.977Z,3.37
2018-12-06T13:57:14.159Z,3.43
2018-12-06T13:59:42.297Z,2.93
2018-12-06T14:02:10.453Z,3.10
2018-12-06T14:04:38.609Z,3.20
2018-12-06T14:07:06.848Z,3.07
2018-12-06T14:09:35.101Z,3.50
2018-12-06T14:12:03.346Z,3.67
2018-12-06T14:14:31.581Z,4.83
2018-12-06T14:16:59.741Z,4.37
2018-12-06T14:19:28.005Z,3.40
2018-12-06T14:21:56.285Z,3.83
2018-12-06T14:24:24.448Z,4.40
2018-12-06T14:26:52.661Z,3.87
2018-12-06T14:29:20.834Z,4.10
2018-12-06T14:31:49.089Z,5.67
2018-12-06T14:34:17.269Z,4.33
2018-12-06T14:36:45.428Z,4.20
2018-12-06T14:39:13.657Z,4.53
2018-12-06T14:41:41.911Z,6.17
2018-12-06T14:44:10.225Z,5.70
2018-12-06T14:46:38.476Z,5.80
2018-12-06T14:49:06.628Z,8.57
2018-12-06T14:51:34.784Z,8.10
2018-12-06T14:54:02.965Z,6.73
2018-12-06T14:56:31.252Z,11.33
2018-12-06T14:58:59.508Z,30.20
2018-12-06T15:01:27.670Z,14.77
2018-12-06T15:03:55.870Z,13.33
2018-12-06T15:06:24.105Z,11.73
2018-12-06T15:08:52.429Z,15.67
2018-12-06T15:11:20.691Z,11.47
2018-12-06T15:13:48.985Z,9.47
2018-12-06T15:16:17.275Z,6.43
2018-12-06T15:18:45.669Z,8.20
2018-12-06T15:21:14.040Z,8.40
2018-12-06T15:23:42.250Z,8.10
2018-12-06T15:26:10.591Z,9.47
2018-12-06T15:28:38.757Z,10.73
2018-12-06T15:31:07.037Z,13.80
2018-12-06T15:33:35.200Z,11.30
2018-12-06T15:36:03.352Z,12.77
2018-12-06T15:38:31.550Z,14.40
2018-12-06T15:40:59.713Z,13.67
2018-12-06T15:43:27.886Z,13.77
2018-12-06T15:45:56.290Z,13.27
2018-12-06T15:48:24.465Z,10.27
2018-12-06T15:50:52.617Z,11.40
2018-12-06T15:53:20.812Z,10.67
2018-12-06T15:55:49.105Z,9.93
2018-12-06T15:58:17.364Z,10.27
2018-12-06T16:00:45.693Z,9.03
2018-12-06T16:03:13.861Z,9.37
2018-12-06T16:05:43.498Z,10.87
2018-12-06T16:08:12.085Z,10.27
2018-12-06T16:10:40.270Z,9.77
2018-12-06T16:13:08.449Z,12.83
2018-12-06T16:15:36.697Z,9.63
2018-12-06T16:18:04.854Z,12.03
2018-12-06T16:20:33.184Z,10.37
2018-12-06T16:23:01.356Z,11.33
2018-12-06T16:25:29.547Z,11.23
2018-12-06T16:27:57.710Z,13.90
2018-12-06T16:30:26.105Z,11.47
2018-12-06T16:32:54.256Z,13.20
2018-12-06T16:35:22.445Z,11.13
2018-12-06T16:37:50.705Z,16.87
2018-12-06T16:40:19.109Z,18.20
2018-12-06T16:42:47.377Z,15.40
2018-12-06T16:45:15.546Z,17.83
2018-12-06T16:47:43.696Z,20.93
2018-12-06T16:50:11.866Z,18.47
2018-12-06T16:52:40.065Z,27.63
2018-12-06T16:55:08.664Z,27.67
2018-12-06T16:57:36.821Z,24.60
2018-12-06T17:00:07.993Z,22.07
2018-12-06T17:02:36.145Z,21.90
2018-12-06T17:05:04.992Z,19.83
2018-12-06T17:07:33.213Z,19.63
2018-12-06T17:10:01.374Z,20.07
2018-12-06T17:12:29.565Z,18.03
2018-12-06T17:14:57.737Z,14.53
2018-12-06T17:17:25.913Z,11.30
2018-12-06T17:19:54.593Z,14.10
2018-12-06T17:22:22.773Z,14.27
2018-12-06T17:24:50.941Z,13.37
2018-12-06T17:27:19.133Z,17.27
2018-12-06T17:29:47.572Z,12.70
2018-12-06T17:32:15.889Z,10.03
2018-12-06T17:34:44.277Z,13.87
2018-12-06T17:37:12.488Z,15.63
2018-12-06T17:39:40.753Z,13.30
2018-12-06T17:42:08.910Z,10.53
2018-12-06T17:44:37.797Z,15.37
2018-12-06T17:47:06.093Z,9.57
2018-12-06T17:49:34.269Z,8.07
2018-12-06T17:52:02.533Z,7.80
2018-12-06T17:54:31.001Z,10.40
2018-12-06T17:56:59.209Z,11.87
2018-12-06T17:59:27.378Z,10.10
2018-12-06T18:01:55.546Z,11.53
2018-12-06T18:04:23.697Z,10.60
2018-12-06T18:06:51.953Z,12.60
2018-12-06T18:09:20.125Z,10.63
2018-12-06T18:11:48.334Z,10.20
2018-12-06T18:14:16.485Z,9.60
2018-12-06T18:16:44.644Z,11.33
2018-12-06T18:19:13.005Z,10.70
2018-12-06T18:21:41.449Z,11.57
2018-12-06T18:24:09.804Z,11.20
2018-12-06T18:26:38.013Z,12.80
2018-12-06T18:29:06.182Z,16.63
2018-12-06T18:31:34.405Z,9.27
2018-12-06T18:34:02.589Z,8.00
2018-12-06T18:36:30.739Z,15.13
2018-12-06T18:38:58.894Z,11.47
2018-12-06T18:41:27.064Z,9.97
2018-12-06T18:43:55.235Z,8.90
2018-12-06T18:46:23.393Z,7.57
2018-12-06T18:48:51.616Z,7.47
2018-12-06T18:51:19.853Z,7.87
2018-12-06T18:53:48.172Z,7.47
2018-12-06T18:56:16.645Z,8.07
2018-12-06T18:58:44.807Z,7.40
2018-12-06T19:01:12.974Z,7.07
2018-12-06T19:03:41.229Z,7.30
2018-12-06T19:06:09.385Z,7.90
2018-12-06T19:08:37.600Z,9.00
2018-12-06T19:11:05.845Z,8.77
2018-12-06T19:13:33.990Z,8.73
2018-12-06T19:16:02.230Z,8.97
2018-12-06T19:18:30.381Z,9.27
2018-12-06T19:20:58.547Z,8.67
2018-12-06T19:23:26.782Z,8.20
2018-12-06T19:25:54.945Z,11.00
2018-12-06T19:28:23.122Z,11.10
2018-12-06T19:30:51.477Z,10.57
2018-12-06T19:33:50.485Z,23.70
2018-12-06T19:36:18.749Z,18.17
2018-12-06T19:38:46.901Z,21.17
2018-12-06T19:41:15.124Z,10.97
2018-12-06T19:43:43.316Z,15.43
2018-12-06T19:46:12.072Z,13.93
2018-12-06T19:48:40.325Z,10.17
2018-12-06T19:51:08.541Z,7.30
2018-12-06T19:53:36.781Z,6.20
2018-12-06T19:56:05.164Z,6.60
2018-12-06T19:58:33.410Z,7.30
2018-12-06T20:01:01.574Z,6.33
2018-12-06T20:03:29.730Z,6.60
2018-12-06T20:05:58.141Z,4.83
2018-12-06T20:08:26.448Z,5.53
2018-12-06T20:10:54.601Z,4.50
2018-12-06T20:13:22.748Z,4.50
2018-12-06T20:15:50.919Z,4.40
2018-12-06T20:18:19.161Z,6.03
2018-12-06T20:20:47.333Z,4.90
2018-12-06T20:23:15.509Z,4.70
2018-12-06T20:25:43.696Z,5.17
2018-12-06T20:28:11.845Z,4.43
2018-12-06T20:30:40.005Z,22.40
2018-12-06T20:33:08.177Z,5.23
2018-12-06T20:35:36.405Z,3.70
2018-12-06T20:38:04.650Z,4.77
2018-12-06T20:40:32.793Z,4.40
2018-12-06T20:43:00.950Z,5.60
2018-12-06T20:45:29.179Z,6.40
2018-12-06T20:47:57.425Z,3.90
2018-12-06T20:50:25.661Z,4.37
2018-12-06T20:52:53.824Z,8.80
2018-12-06T20:55:21.977Z,6.67
2018-12-06T20:57:50.138Z,4.37
2018-12-06T21:00:18.421Z,5.67
2018-12-06T21:02:46.581Z,3.33
2018-12-06T21:05:14.729Z,4.00
2018-12-06T21:07:42.885Z,2.60
2018-12-06T21:10:11.025Z,2.93
2018-12-06T21:12:39.218Z,2.60
2018-12-06T21:15:07.928Z,1.83
2018-12-06T21:17:36.332Z,1.80
2018-12-06T21:20:04.817Z,2.00
2018-12-06T21:22:33.221Z,2.20
2018-12-06T21:25:01.392Z,2.10
2018-12-06T21:27:29.629Z,2.00
2018-12-06T21:29:57.792Z,2.00
2018-12-06T21:32:25.961Z,1.83
2018-12-06T21:34:54.113Z,2.00
2018-12-06T21:37:22.276Z,1.70
2018-12-06T21:39:50.476Z,1.70
2018-12-06T21:42:18.628Z,1.73
2018-12-06T21:44:46.779Z,1.60
2018-12-06T21:47:20.180Z,1.57
2018-12-06T21:49:48.486Z,1.40
2018-12-06T21:52:16.684Z,1.50
2018-12-06T21:54:44.890Z,1.40
2018-12-06T21:57:13.120Z,1.40
2018-12-06T21:59:41.304Z,1.73
2018-12-06T22:02:22.001Z,2.03
2018-12-06T22:04:50.186Z,2.10
2018-12-06T22:07:18.609Z,1.80
2018-12-06T22:09:46.806Z,2.27
2018-12-06T22:12:14.944Z,1.87
2018-12-06T22:14:43.185Z,1.80
2018-12-06T22:17:11.418Z,1.93
2018-12-06T22:19:39.640Z,1.50
2018-12-06T22:22:07.957Z,1.47
2018-12-06T22:24:36.280Z,2.10
2018-12-06T22:27:04.453Z,2.13
2018-12-06T22:29:32.630Z,1.80
2018-12-06T22:32:00.849Z,2.27
2018-12-06T22:34:29.075Z,3.87
2018-12-06T22:36:57.232Z,1.80
2018-12-06T22:39:25.429Z,1.67
2018-12-06T22:41:53.661Z,1.30
2018-12-06T22:44:21.813Z,1.40
2018-12-06T22:46:49.968Z,1.40
2018-12-06T22:49:18.133Z,1.47
2018-12-06T22:51:46.281Z,1.00
2018-12-06T22:54:14.436Z,1.20
2018-12-06T22:56:42.628Z,1.20
2018-12-06T22:59:10.961Z,1.30
2018-12-06T23:01:40.097Z,1.27
2018-12-06T23:04:08.725Z,1.00
2018-12-06T23:06:38.101Z,1.10
2018-12-06T23:09:09.173Z,1.10
2018-12-06T23:11:38.177Z,1.00
2018-12-06T23:14:06.320Z,1.33
2018-12-06T23:16:34.645Z,1.20
2018-12-06T23:19:03.369Z,1.23
2018-12-06T23:21:31.609Z,1.30
2018-12-06T23:23:59.921Z,1.10
2018-12-06T23:26:28.084Z,1.10
2018-12-06T23:28:56.313Z,1.07
2018-12-06T23:31:24.476Z,1.27
2018-12-06T23:33:52.713Z,1.23
2018-12-06T23:36:20.872Z,1.27
2018-12-06T23:38:49.017Z,1.30
2018-12-06T23:41:17.173Z,1.20
2018-12-06T23:43:45.396Z,1.17
2018-12-06T23:46:13.577Z,1.20
2018-12-06T23:48:41.775Z,1.23
2018-12-06T23:51:21.371Z,1.10
2018-12-06T23:53:49.652Z,1.20
2018-12-06T23:56:17.821Z,1.30
2018-12-06T23:58:46.127Z,1.47
